Terminal Aerodrome Forecast
Issued by NWS

Current Version | Previous Version | Graphics & Text | Print | Product List | Glossary On
Versions: 1 2 3 4 5 6 7 8 9 10 11 12 13 14 15 16 17 18 19 20 21 22 23 24 25 26 27 28 29 30 31 32 33 34 35 36 37 38 39
000
FTUS41 KRNK 230520
TAFLWB
TAF
KLWB 230520Z 2306/2406 VRB03KT P6SM OVC120
     FM231100 05003KT P6SM OVC035
     FM231900 VRB03KT 3SM -RASN BR OVC015
     FM232100 05003KT 2SM -SNPL BR OVC008
     FM240300 VRB03KT 1 1/2SM -SN OVC005=

USA.gov is the U.S. government's official web portal to all federal, state and local government web resources and services.